Time;durP1;ratioP1;P1;durP2;ratioP2;P2;SDS_P1;SDS_P2;PMS_P1;PMS_P2;Temp;Humidity;BMP_temperature;BMP_pressure;BME280_temperature;BME280_humidity;BME280_pressure;Samples;Min_cycle;Max_cycle;Signal;HPM_P1;HPM_P2
2022/06/07 00:01:13;;;;;;;24.95;16.70;;;;;;;12.88;89.36;101255.16;4988442;28;20489;-72
2022/06/07 00:03:39;;;;;;;26.30;16.63;;;;;;;12.90;89.01;101250.44;4978622;28;20092;-72
2022/06/07 00:06:04;;;;;;;28.45;16.73;;;;;;;12.91;89.07;101245.84;4995617;28;20026;-72
2022/06/07 00:08:31;;;;;;;29.33;16.98;;;;;;;12.91;89.22;101245.84;4988729;28;20494;-72
2022/06/07 00:10:56;;;;;;;29.15;16.00;;;;;;;12.91;89.26;101241.25;4984707;28;20033;-72
2022/06/07 00:13:22;;;;;;;26.20;16.60;;;;;;;12.89;89.64;101236.91;4977506;28;20025;-72
2022/06/07 00:15:47;;;;;;;28.50;17.08;;;;;;;12.87;89.50;101236.13;5006131;28;20046;-72
2022/06/07 00:18:13;;;;;;;29.33;16.98;;;;;;;12.86;89.28;101237.13;4993208;28;20411;-72
2022/06/07 00:20:40;;;;;;;34.03;17.73;;;;;;;12.83;89.25;101230.06;4986407;28;20114;-72
2022/06/07 00:23:10;;;;;;;28.67;17.42;;;;;;;12.79;89.92;101230.41;4990663;28;20084;-71
2022/06/07 00:25:36;;;;;;;31.73;18.50;;;;;;;12.78;90.36;101224.06;5006715;28;20540;-72
2022/06/07 00:28:02;;;;;;;33.28;16.92;;;;;;;12.79;89.73;101227.66;4993453;28;20713;-72
2022/06/07 00:30:29;;;;;;;30.42;17.48;;;;;;;12.77;89.44;101225.91;5005268;28;20042;-72
2022/06/07 00:32:54;;;;;;;32.03;18.67;;;;;;;12.76;90.14;101220.56;4985226;28;20200;-71
2022/06/07 00:35:21;;;;;;;29.80;18.40;;;;;;;12.72;90.36;101216.31;4967618;28;20553;-71
2022/06/07 00:37:47;;;;;;;33.20;19.65;;;;;;;12.70;90.68;101211.00;5005145;28;20655;-70
2022/06/07 00:40:13;;;;;;;37.08;18.27;;;;;;;12.70;90.50;101215.56;5006431;28;20033;-72
2022/06/07 00:42:39;;;;;;;36.40;20.85;;;;;;;12.70;90.86;101212.84;4967149;28;20441;-72
2022/06/07 00:45:05;;;;;;;31.58;18.73;;;;;;;12.70;90.93;101211.00;4963700;28;20030;-72
2022/06/07 00:47:31;;;;;;;37.45;20.00;;;;;;;12.70;91.15;101215.56;4998087;28;20494;-71
2022/06/07 00:50:00;;;;;;;28.45;17.23;;;;;;;12.68;90.10;101206.63;5005094;28;20034;-71
2022/06/07 00:52:28;;;;;;;36.90;19.75;;;;;;;12.68;90.47;101207.50;5004546;28;20050;-72
2022/06/07 00:54:56;;;;;;;31.05;19.08;;;;;;;12.69;89.83;101208.38;5003396;28;20079;-72
2022/06/07 00:57:29;;;;;;;30.45;18.92;;;;;;;12.64;89.98;101203.28;4982791;28;20509;-72
2022/06/07 00:59:56;;;;;;;34.08;19.42;;;;;;;12.64;90.11;101196.94;5004805;28;20049;-72
2022/06/07 01:02:22;;;;;;;34.28;17.30;;;;;;;12.62;89.39;101196.16;4990312;28;20387;-72
2022/06/07 01:04:47;;;;;;;26.27;17.20;;;;;;;12.60;89.37;101190.84;4981836;28;20101;-72
2022/06/07 01:12:48;;;;;;;32.17;18.13;;;;;;;12.64;89.46;101192.34;4988501;28;20038;-73
2022/06/07 01:15:16;;;;;;;23.90;17.02;;;;;;;12.66;89.07;101192.22;4976431;28;20040;-73
2022/06/07 01:17:43;;;;;;;30.52;18.08;;;;;;;12.65;89.69;101185.91;4989626;28;20042;-73
2022/06/07 01:20:10;;;;;;;32.00;18.58;;;;;;;12.66;89.97;101186.75;4980502;28;20053;-72
2022/06/07 01:22:36;;;;;;;30.00;17.67;;;;;;;12.64;89.62;101183.28;4991195;28;20416;-73
2022/06/07 01:25:01;;;;;;;28.13;16.95;;;;;;;12.62;89.56;101174.34;4993068;28;20026;-73
2022/06/07 01:27:27;;;;;;;28.58;18.15;;;;;;;12.61;89.51;101187.13;4989469;28;20103;-73
2022/06/07 01:29:52;;;;;;;28.15;17.00;;;;;;;12.62;89.63;101177.06;4991769;28;20532;-73
2022/06/07 01:32:18;;;;;;;28.02;17.88;;;;;;;12.62;89.81;101182.53;4990719;28;20061;-73
2022/06/07 01:34:45;;;;;;;24.65;16.33;;;;;;;12.61;89.81;101183.50;4988306;28;20034;-72
2022/06/07 01:37:14;;;;;;;25.17;15.40;;;;;;;12.57;89.24;101182.00;4984823;28;20512;-73
2022/06/07 01:42:23;;;;;;;27.25;15.10;;;;;;;12.54;88.76;101171.31;4990266;28;20482;-72
2022/06/07 01:44:50;;;;;;;25.55;15.13;;;;;;;12.53;88.70;101175.91;4990007;28;20062;-72
2022/06/07 01:47:21;;;;;;;26.67;14.65;;;;;;;12.51;88.87;101175.16;4990180;28;20041;-72
2022/06/07 01:49:51;;;;;;;22.20;14.35;;;;;;;12.50;88.19;101168.81;5003097;28;20030;-72
2022/06/07 01:52:20;;;;;;;22.70;13.65;;;;;;;12.49;88.22;101172.53;4982863;28;20042;-71
2022/06/07 01:54:48;;;;;;;23.38;13.05;;;;;;;12.49;87.78;101163.47;4992234;28;20034;-71
2022/06/07 01:57:15;;;;;;;22.08;13.88;;;;;;;12.48;88.22;101164.47;4989554;28;20622;-72
2022/06/07 01:59:40;;;;;;;19.90;12.20;;;;;;;12.48;88.46;101164.47;4986253;28;20065;-71
2022/06/07 02:02:13;;;;;;;20.70;13.02;;;;;;;12.48;88.17;101157.13;4990752;28;20034;-71
2022/06/07 02:04:41;;;;;;;24.10;12.93;;;;;;;12.49;87.85;101161.59;4966181;28;20037;-72
2022/06/07 02:07:08;;;;;;;18.95;11.95;;;;;;;12.47;87.69;101160.00;4991259;28;20397;-72
2022/06/07 02:09:36;;;;;;;20.88;11.90;;;;;;;12.48;87.53;101159.88;4992255;28;20899;-72
2022/06/07 02:12:02;;;;;;;19.38;12.48;;;;;;;12.47;87.83;101158.13;4989834;28;20733;-73
2022/06/07 02:14:29;;;;;;;17.17;10.88;;;;;;;12.47;87.75;101154.53;4998382;28;20398;-72
2022/06/07 02:16:55;;;;;;;20.90;13.07;;;;;;;12.44;86.78;101150.16;5005175;28;20469;-72
2022/06/07 02:19:26;;;;;;;17.45;11.18;;;;;;;12.43;87.81;101153.88;4974117;28;20026;-72
2022/06/07 02:21:51;;;;;;;21.20;11.27;;;;;;;12.42;87.56;101156.75;4991592;28;20108;-71
2022/06/07 02:24:17;;;;;;;20.45;11.30;;;;;;;12.40;87.26;101154.13;4991872;28;20031;-72
2022/06/07 02:26:47;;;;;;;17.02;10.68;;;;;;;12.36;87.61;101155.34;5002830;28;20117;-73
2022/06/07 02:29:29;;;;;;;18.95;11.45;;;;;;;12.37;87.83;101148.03;4976930;28;20053;-72
2022/06/07 02:32:00;;;;;;;17.30;9.23;;;;;;;12.35;87.25;101148.13;5009170;28;20045;-72
2022/06/07 02:34:26;;;;;;;16.58;10.98;;;;;;;12.35;87.05;101152.72;4998962;28;20430;-73
2022/06/07 02:36:55;;;;;;;16.63;10.05;;;;;;;12.33;87.12;101147.38;4975327;28;20120;-72
2022/06/07 02:39:21;;;;;;;15.45;9.27;;;;;;;12.34;86.97;101148.25;5002933;28;20038;-73
2022/06/07 02:41:48;;;;;;;18.73;9.55;;;;;;;12.32;86.08;101139.31;4987307;28;20034;-70
2022/06/07 02:44:13;;;;;;;16.50;9.27;;;;;;;12.31;86.85;101140.28;5005286;28;20060;-73
2022/06/07 02:46:39;;;;;;;13.50;8.20;;;;;;;12.30;86.39;101133.09;4990782;28;20034;-72
2022/06/07 02:49:05;;;;;;;12.23;8.68;;;;;;;12.27;85.84;101136.94;5001386;28;20053;-71
2022/06/07 02:51:32;;;;;;;11.23;8.40;;;;;;;12.25;86.03;101133.44;5000101;28;20025;-73
2022/06/07 02:53:58;;;;;;;15.60;9.10;;;;;;;12.23;86.44;101136.28;4991195;28;20061;-72
2022/06/07 02:56:26;;;;;;;18.83;9.18;;;;;;;12.18;86.23;101130.31;4986971;28;20454;-73
2022/06/07 02:58:51;;;;;;;13.57;8.43;;;;;;;12.19;86.25;101128.44;4985204;28;20049;-73
2022/06/07 03:01:18;;;;;;;12.43;8.20;;;;;;;12.18;87.08;101133.03;5001823;28;20033;-73
2022/06/07 03:03:45;;;;;;;13.85;7.68;;;;;;;12.16;85.91;101134.13;4973660;28;20434;-73
2022/06/07 03:06:13;;;;;;;11.60;8.13;;;;;;;12.15;86.80;101136.00;4990757;28;20596;-72
2022/06/07 03:08:38;;;;;;;16.55;7.35;;;;;;;12.16;86.43;101143.19;4989735;28;20084;-70
2022/06/07 03:11:04;;;;;;;10.73;7.97;;;;;;;12.11;86.39;101145.38;4978872;28;20065;-72
2022/06/07 03:13:33;;;;;;;14.70;7.50;;;;;;;12.10;86.34;101142.78;4975491;28;20073;-72
2022/06/07 03:15:59;;;;;;;14.32;7.20;;;;;;;12.06;86.37;101136.66;4990417;28;20088;-74
2022/06/07 03:18:25;;;;;;;11.23;7.40;;;;;;;12.04;85.74;101152.28;4985794;28;20026;-72
2022/06/07 03:20:51;;;;;;;11.80;6.82;;;;;;;12.03;86.09;101152.38;4973616;28;20026;-73
2022/06/07 03:23:18;;;;;;;12.35;7.10;;;;;;;12.02;86.20;101150.66;4987316;28;20065;-73
2022/06/07 03:25:49;;;;;;;14.43;6.97;;;;;;;12.02;85.45;101147.91;4989628;28;20041;-72
2022/06/07 03:28:16;;;;;;;12.18;7.32;;;;;;;12.02;86.58;101154.25;4988331;28;20557;-71
2022/06/07 03:30:42;;;;;;;11.05;6.82;;;;;;;11.99;85.97;101154.47;4987699;28;20030;-73
2022/06/07 03:33:11;;;;;;;11.07;6.63;;;;;;;11.98;85.79;101156.34;4970918;28;20513;-73
2022/06/07 03:35:39;;;;;;;11.18;7.00;;;;;;;11.98;86.39;101163.63;4987710;28;20141;-72
2022/06/07 03:38:04;;;;;;;14.02;7.13;;;;;;;11.93;86.03;101161.22;4990387;28;20401;-71
2022/06/07 03:40:43;;;;;;;9.93;6.65;;;;;;;11.95;86.46;101163.88;4989441;28;20049;-72
2022/06/07 03:43:11;;;;;;;13.48;6.60;;;;;;;11.92;86.13;101161.34;4988200;28;20041;-73
2022/06/07 03:45:38;;;;;;;6.72;5.60;;;;;;;11.94;86.13;101164.88;4973686;28;20540;-71
2022/06/07 03:48:06;;;;;;;10.27;6.97;;;;;;;11.93;85.97;101177.59;4971781;28;20049;-72
2022/06/07 03:50:33;;;;;;;11.88;6.72;;;;;;;11.93;85.94;101174.88;4987895;28;20462;-72
2022/06/07 03:52:58;;;;;;;10.45;6.90;;;;;;;11.91;85.94;101168.66;4988676;28;20033;-73
2022/06/07 03:55:24;;;;;;;12.27;6.30;;;;;;;11.93;86.02;101174.88;4989032;28;20030;-72
2022/06/07 03:58:10;;;;;;;10.73;6.50;;;;;;;11.92;85.61;101170.41;4999279;28;20045;-71
2022/06/07 04:00:36;;;;;;;10.80;6.45;;;;;;;11.92;85.83;101178.59;4989476;28;20041;-73
2022/06/07 04:03:05;;;;;;;11.23;6.75;;;;;;;11.92;86.22;101173.13;4984754;28;20495;-73
2022/06/07 04:05:32;;;;;;;9.27;6.97;;;;;;;11.92;85.43;101172.25;4973120;28;20026;-72
2022/06/07 04:08:12;;;;;;;9.68;6.43;;;;;;;11.90;85.84;101185.16;4989862;28;20076;-72
2022/06/07 04:10:51;;;;;;;10.93;6.05;;;;;;;11.92;85.78;101185.91;4989642;28;20034;-72
2022/06/07 04:13:24;;;;;;;11.75;6.78;;;;;;;11.94;86.36;101182.09;4984926;28;20842;-71
2022/06/07 04:15:54;;;;;;;8.70;6.93;;;;;;;11.96;86.31;101187.41;4989327;28;20033;-71
2022/06/07 04:18:20;;;;;;;9.98;6.55;;;;;;;11.97;86.42;101176.38;4988130;28;20053;-72
2022/06/07 04:20:47;;;;;;;9.80;6.07;;;;;;;11.98;85.69;101182.72;4989304;28;20041;-72
2022/06/07 04:23:16;;;;;;;8.27;6.07;;;;;;;11.98;85.48;101175.44;4989783;28;20038;-71
2022/06/07 04:25:41;;;;;;;11.68;6.25;;;;;;;12.00;85.99;101178.91;5007144;28;20565;-71
2022/06/07 04:28:10;;;;;;;11.80;7.20;;;;;;;12.02;86.06;101180.63;4984277;28;20192;-73
2022/06/07 04:30:37;;;;;;;11.68;7.65;;;;;;;12.01;85.58;101179.78;4986006;28;20049;-72
2022/06/07 04:33:04;;;;;;;10.82;6.55;;;;;;;12.00;85.70;101173.44;4988564;28;20341;-72
2022/06/07 04:35:30;;;;;;;12.98;6.78;;;;;;;12.07;85.50;101178.44;4995508;28;20117;-73
2022/06/07 04:38:00;;;;;;;12.65;6.93;;;;;;;12.08;85.97;101178.34;4996354;28;20041;-72
2022/06/07 04:40:32;;;;;;;12.90;7.10;;;;;;;12.12;85.88;101190.75;4989072;28;20565;-72
2022/06/07 04:42:58;;;;;;;11.68;6.85;;;;;;;12.16;86.30;101185.94;4984669;28;20038;-72
2022/06/07 04:45:28;;;;;;;13.77;7.30;;;;;;;12.20;85.98;101190.19;4988720;28;20042;-72
2022/06/07 04:48:10;;;;;;;12.65;7.35;;;;;;;12.23;85.38;101185.41;4987232;28;20565;-71
2022/06/07 04:50:44;;;;;;;11.95;7.38;;;;;;;12.30;85.22;101184.94;4984837;28;20129;-72
2022/06/07 04:53:10;;;;;;;14.10;8.63;;;;;;;12.32;85.76;101189.31;4997950;28;20184;-72
2022/06/07 04:55:38;;;;;;;10.73;7.53;;;;;;;12.36;85.80;101192.69;4973009;28;20482;-73
2022/06/07 04:58:04;;;;;;;11.20;7.55;;;;;;;12.41;85.46;101190.47;4986515;28;20025;-72
2022/06/07 05:00:29;;;;;;;13.98;8.27;;;;;;;12.49;85.56;101193.47;5006089;28;20033;-71
2022/06/07 05:02:59;;;;;;;18.63;7.00;;;;;;;12.53;84.94;101184.09;4985006;28;20398;-71
2022/06/07 05:05:26;;;;;;;13.95;8.30;;;;;;;12.60;85.17;101195.44;4984960;28;20026;-73
2022/06/07 05:07:52;;;;;;;12.93;7.15;;;;;;;12.65;84.83;101190.50;4989146;28;20040;-72
2022/06/07 05:10:22;;;;;;;12.65;8.27;;;;;;;12.71;84.52;101201.81;4988029;28;20045;-73
2022/06/07 05:12:53;;;;;;;17.98;9.02;;;;;;;12.75;84.78;101203.31;4984560;28;20478;-72
2022/06/07 05:15:22;;;;;;;15.25;9.00;;;;;;;12.81;85.87;101198.38;4985013;28;20064;-73
2022/06/07 05:17:52;;;;;;;14.20;8.52;;;;;;;12.85;84.69;101202.63;4985643;28;20477;-74
2022/06/07 05:20:19;;;;;;;11.60;8.25;;;;;;;12.87;84.75;101201.53;4981459;28;20156;-73
2022/06/07 05:22:49;;;;;;;12.15;8.60;;;;;;;12.90;84.60;101200.41;4989233;28;20048;-73
2022/06/07 05:25:18;;;;;;;15.38;8.85;;;;;;;12.98;84.20;101207.03;4989097;28;20033;-71
2022/06/07 05:27:47;;;;;;;16.00;8.63;;;;;;;13.10;83.49;101202.47;4997047;28;20400;-72
2022/06/07 05:30:16;;;;;;;15.63;8.77;;;;;;;13.18;83.16;101202.75;4988459;28;20037;-73
2022/06/07 05:33:07;;;;;;;17.70;9.18;;;;;;;13.20;83.70;101194.44;5001885;28;20042;-73
2022/06/07 05:35:44;;;;;;;14.23;9.48;;;;;;;13.29;83.66;101207.44;4988902;28;20580;-71
2022/06/07 05:38:14;;;;;;;17.98;9.30;;;;;;;13.28;83.25;101209.25;4993031;28;20516;-72
2022/06/07 05:40:43;;;;;;;13.77;9.07;;;;;;;13.29;82.85;101204.69;5005268;28;20026;-73
2022/06/07 05:43:13;;;;;;;17.33;9.27;;;;;;;13.31;82.56;101210.91;4992377;28;20046;-72
2022/06/07 05:45:47;;;;;;;15.98;8.55;;;;;;;13.33;82.72;101214.38;4987443;28;20564;-73
2022/06/07 05:48:17;;;;;;;14.50;9.23;;;;;;;13.37;82.98;101204.94;5003234;28;20437;-73
2022/06/07 05:50:48;;;;;;;15.77;8.63;;;;;;;13.39;82.27;101205.72;4997646;28;20030;-73
2022/06/07 05:53:15;;;;;;;14.55;9.30;;;;;;;13.44;82.19;101217.16;4992938;28;20034;-73
2022/06/07 05:55:41;;;;;;;15.45;9.23;;;;;;;13.50;82.38;101213.06;4991139;28;20052;-73
2022/06/07 05:58:07;;;;;;;16.13;9.43;;;;;;;13.49;81.70;101209.47;4989480;28;20470;-72
2022/06/07 06:00:34;;;;;;;14.82;8.68;;;;;;;13.51;81.92;101212.06;4991509;28;20140;-73
2022/06/07 06:03:01;;;;;;;13.15;8.45;;;;;;;13.55;81.92;101209.97;4987484;28;20173;-73
2022/06/07 06:05:36;;;;;;;19.05;9.30;;;;;;;13.62;82.28;101214.81;4991058;28;20088;-72
2022/06/07 06:11:04;;;;;;;15.85;8.93;;;;;;;13.88;81.97;101214.59;4990475;28;20061;-72
2022/06/07 06:13:30;;;;;;;17.00;9.75;;;;;;;13.95;80.95;101213.13;4983095;28;20088;-73
2022/06/07 06:16:01;;;;;;;14.82;9.40;;;;;;;14.13;80.36;101217.09;4989984;28;20038;-73
2022/06/07 06:18:27;;;;;;;20.75;10.60;;;;;;;14.35;80.68;101218.06;4989865;28;20030;-72
2022/06/07 06:20:53;;;;;;;16.30;9.52;;;;;;;14.46;80.31;101210.72;4990239;28;20033;-72
2022/06/07 06:23:22;;;;;;;22.05;10.90;;;;;;;14.59;81.00;101215.19;4975853;28;20040;-73
2022/06/07 06:25:48;;;;;;;18.58;11.13;;;;;;;14.69;80.08;101208.84;4989758;28;20037;-71
2022/06/07 06:28:13;;;;;;;18.75;10.60;;;;;;;14.87;80.17;101211.84;4988554;28;20034;-72
2022/06/07 06:30:44;;;;;;;21.42;10.90;;;;;;;15.02;79.67;101210.59;5008097;28;20038;-73
2022/06/07 06:33:18;;;;;;;19.45;9.75;;;;;;;15.07;79.43;101206.59;4997379;28;20034;-72
2022/06/07 06:35:52;;;;;;;20.70;10.10;;;;;;;15.13;79.42;101208.78;4990670;28;20426;-70
2022/06/07 06:38:21;;;;;;;18.38;10.88;;;;;;;15.12;79.55;101207.06;4973024;28;20025;-73
2022/06/07 06:40:48;;;;;;;17.77;12.30;;;;;;;15.21;78.93;101209.88;4988624;28;20164;-72
2022/06/07 06:43:16;;;;;;;17.77;12.75;;;;;;;15.29;80.28;101211.94;4988929;28;20030;-73
2022/06/07 06:46:03;;;;;;;22.10;12.27;;;;;;;15.50;79.33;101212.81;4990518;28;20030;-72
2022/06/07 06:48:30;;;;;;;18.92;12.60;;;;;;;15.63;79.99;101203.53;4990342;28;20652;-73
2022/06/07 06:51:00;;;;;;;19.83;12.02;;;;;;;15.76;78.01;101202.34;4988562;28;20060;-73
2022/06/07 06:53:26;;;;;;;22.65;14.15;;;;;;;15.85;78.08;101197.88;5001182;28;20109;-73
2022/06/07 06:55:55;;;;;;;23.10;13.85;;;;;;;15.93;76.46;101206.31;4990908;28;20054;-74
2022/06/07 06:58:21;;;;;;;23.10;14.40;;;;;;;16.08;78.07;101207.66;4988470;28;20497;-72
2022/06/07 07:00:49;;;;;;;23.95;14.13;;;;;;;16.17;76.80;101216.94;4989612;28;20401;-72
2022/06/07 07:03:14;;;;;;;23.80;15.02;;;;;;;16.10;76.37;101210.28;4970380;28;20057;-73
2022/06/07 07:05:40;;;;;;;28.17;15.15;;;;;;;16.18;76.97;101220.56;4990453;28;20449;-73
2022/06/07 07:08:07;;;;;;;23.45;14.57;;;;;;;16.18;76.05;101218.72;4989721;28;20453;-72
2022/06/07 07:10:33;;;;;;;25.10;14.45;;;;;;;16.12;77.29;101219.25;4989888;28;20501;-74
2022/06/07 07:12:59;;;;;;;23.05;15.60;;;;;;;16.14;77.84;101219.13;4984965;28;20049;-73
2022/06/07 07:15:31;;;;;;;;;;;;;;;16.22;77.48;101225.63;4988635;28;20030;-74
2022/06/07 07:18:11;;;;;;;22.55;13.90;;;;;;;16.14;76.21;101221.88;4985015;28;19918;-72
2022/06/07 07:20:42;;;;;;;22.88;14.85;;;;;;;16.04;76.31;101222.69;4989495;28;20058;-74
2022/06/07 07:23:08;;;;;;;20.88;14.35;;;;;;;16.03;76.93;101226.44;4990634;28;20033;-74
2022/06/07 07:25:34;;;;;;;25.02;14.55;;;;;;;16.06;76.57;101223.41;4990548;28;20022;-73
2022/06/07 07:28:01;;;;;;;22.33;14.10;;;;;;;16.22;77.31;101220.16;4969104;28;20481;-73
2022/06/07 07:30:30;;;;;;;25.08;15.07;;;;;;;16.43;75.64;101225.59;4985230;28;20461;-73
2022/06/07 07:32:57;;;;;;;24.70;15.07;;;;;;;16.52;75.30;101233.00;4985260;28;20109;-74
2022/06/07 07:35:24;;;;;;;20.15;14.48;;;;;;;16.48;75.51;101220.53;4978301;28;20030;-73
2022/06/07 07:37:58;;;;;;;25.65;14.70;;;;;;;16.72;76.75;101222.94;5008064;28;20033;-74
2022/06/07 07:40:23;;;;;;;20.60;14.63;;;;;;;16.99;74.46;101219.50;4990308;28;20041;-73
2022/06/07 07:42:49;;;;;;;21.85;15.45;;;;;;;17.07;73.77;101224.31;4988945;28;20026;-73
2022/06/07 07:45:20;;;;;;;21.23;15.15;;;;;;;16.98;74.23;101219.66;4988852;28;20455;-73
2022/06/07 07:47:49;;;;;;;21.00;16.00;;;;;;;17.23;75.60;101213.56;4988866;28;20101;-73
2022/06/07 07:50:15;;;;;;;24.25;16.27;;;;;;;17.50;73.96;101217.47;4969936;28;20065;-74
2022/06/07 07:52:47;;;;;;;24.13;17.20;;;;;;;17.67;72.62;101222.19;4987401;28;20030;-71
2022/06/07 07:55:13;;;;;;;25.60;16.67;;;;;;;17.72;73.13;101221.75;4990682;28;20374;-74
2022/06/07 07:57:39;;;;;;;28.73;20.90;;;;;;;17.71;71.79;101209.88;4969668;28;20481;-73
2022/06/07 08:00:09;;;;;;;25.55;19.13;;;;;;;17.70;71.87;101221.91;4988146;28;20050;-74
2022/06/07 08:02:38;;;;;;;22.90;17.85;;;;;;;17.70;71.87;101216.41;5005317;28;20053;-74
2022/06/07 08:05:10;;;;;;;26.83;18.98;;;;;;;17.78;72.97;101218.47;4983734;28;20328;-73
2022/06/07 08:07:36;;;;;;;21.23;17.25;;;;;;;17.88;72.24;101216.53;4990272;28;20034;-74
2022/06/07 08:10:04;;;;;;;27.35;17.85;;;;;;;17.92;71.33;101219.88;5007110;28;20034;-74
2022/06/07 08:12:31;;;;;;;27.45;20.02;;;;;;;17.91;71.90;101216.25;4992035;28;20401;-74
2022/06/07 08:14:58;;;;;;;25.00;19.77;;;;;;;17.79;71.41;101214.69;4982364;28;20629;-75
2022/06/07 08:17:25;;;;;;;24.55;18.42;;;;;;;17.97;71.86;101212.91;4988835;28;20033;-74
2022/06/07 08:19:51;;;;;;;22.73;18.45;;;;;;;18.09;72.39;101217.22;5003886;28;20084;-73
2022/06/07 08:22:16;;;;;;;22.98;18.70;;;;;;;18.21;71.09;101220.63;4987904;28;20033;-72
2022/06/07 08:24:42;;;;;;;23.77;18.45;;;;;;;18.29;71.78;101219.88;5007623;28;20045;-71
2022/06/07 08:27:08;;;;;;;28.90;18.60;;;;;;;18.25;70.80;101223.94;4986663;28;20493;-74
2022/06/07 08:29:33;;;;;;;26.27;18.45;;;;;;;18.03;71.56;101219.69;4994053;28;20044;-73
2022/06/07 08:31:59;;;;;;;26.83;19.50;;;;;;;17.87;72.19;101214.81;4984842;28;20033;-74
2022/06/07 08:39:53;;;;;;;27.13;19.40;;;;;;;17.80;72.43;101214.53;5004567;28;20537;-74
2022/06/07 08:42:35;;;;;;;23.85;19.83;;;;;;;17.82;72.82;101217.16;5002050;28;20136;-74
2022/06/07 08:45:05;;;;;;;25.92;20.30;;;;;;;18.03;73.67;101214.16;5004753;28;20030;-74
2022/06/07 08:47:41;;;;;;;30.73;22.17;;;;;;;18.29;73.63;101214.38;5004695;28;20033;-74
2022/06/07 08:50:21;;;;;;;28.83;21.52;;;;;;;18.55;71.47;101211.75;4999807;28;20446;-74
2022/06/07 08:52:49;;;;;;;28.35;20.25;;;;;;;18.83;71.25;101213.47;5006635;28;20049;-74
2022/06/07 08:55:27;;;;;;;29.15;19.67;;;;;;;18.94;69.93;101211.53;4989046;28;20095;-74
2022/06/07 08:58:08;;;;;;;27.63;20.27;;;;;;;19.14;69.93;101209.50;5003534;28;20095;-72
2022/06/07 09:00:36;;;;;;;27.88;20.65;;;;;;;19.31;69.50;101201.22;4988245;28;20088;-73
2022/06/07 09:03:32;;;;;;;29.98;20.67;;;;;;;19.43;70.52;101210.09;5001156;28;20034;-73
2022/06/07 09:06:00;;;;;;;26.80;19.40;;;;;;;19.38;67.34;101206.94;4964025;28;20094;-73
2022/06/07 09:08:54;;;;;;;24.85;19.30;;;;;;;19.65;70.21;101213.41;4971596;28;20486;-73
2022/06/07 09:14:32;;;;;;;29.15;21.52;;;;;;;19.84;66.40;101191.97;4999406;28;20029;-73
2022/06/07 09:17:09;;;;;;;26.48;20.25;;;;;;;19.93;68.00;101203.94;5010240;28;20034;-74
2022/06/07 09:19:35;;;;;;;23.70;18.77;;;;;;;20.09;63.34;101201.25;4991942;28;20504;-71
2022/06/07 09:22:06;;;;;;;24.63;18.55;;;;;;;20.00;64.77;101204.13;4990854;28;20038;-73
2022/06/07 09:24:40;;;;;;;20.20;17.10;;;;;;;20.11;64.66;101198.34;5010661;28;20424;-74
2022/06/07 09:27:16;;;;;;;20.00;16.95;;;;;;;20.10;65.68;101202.13;4989964;28;20065;-74
2022/06/07 09:29:48;;;;;;;21.13;18.83;;;;;;;20.00;65.07;101209.66;4999408;28;20140;-73
2022/06/07 09:32:16;;;;;;;;;;;;;;;20.18;67.27;101204.06;4991265;28;20125;-74
2022/06/07 09:34:58;;;;;;;21.23;17.00;;;;;;;20.41;65.13;101199.66;5002054;28;19921;-73
2022/06/07 09:37:50;;;;;;;22.92;17.67;;;;;;;20.51;66.10;101197.66;4988276;28;20480;-73
2022/06/07 09:40:31;;;;;;;22.58;17.48;;;;;;;20.49;64.78;101198.88;4999738;28;20639;-74
2022/06/07 09:43:00;;;;;;;21.55;17.00;;;;;;;20.69;65.05;101203.09;4976821;28;20042;-72
2022/06/07 09:45:30;;;;;;;23.83;17.80;;;;;;;21.11;65.57;101191.06;5003188;28;20061;-74
2022/06/07 09:47:56;;;;;;;19.83;17.67;;;;;;;21.46;63.25;101194.59;4996072;28;20426;-74
2022/06/07 09:50:25;;;;;;;25.52;18.27;;;;;;;21.87;61.89;101187.09;4978789;28;20026;-73
2022/06/07 09:53:06;;;;;;;21.48;15.48;;;;;;;22.15;59.21;101190.34;4989855;28;20029;-73
2022/06/07 09:55:54;;;;;;;20.10;18.10;;;;;;;22.17;61.74;101191.00;5009491;28;20095;-71
2022/06/07 09:58:34;;;;;;;17.45;15.65;;;;;;;21.97;58.12;101187.75;4988494;28;20576;-73
2022/06/07 10:01:11;;;;;;;18.73;15.27;;;;;;;22.12;61.36;101185.13;5002638;28;20030;-73
2022/06/07 10:03:46;;;;;;;17.38;15.13;;;;;;;22.45;59.16;101180.31;5003621;28;20037;-71
2022/06/07 10:06:21;;;;;;;17.00;15.27;;;;;;;22.87;60.19;101179.06;5007877;28;20046;-73
2022/06/07 10:09:24;;;;;;;17.38;14.35;;;;;;;23.02;59.50;101179.16;5009027;28;20122;-73
2022/06/07 10:12:05;;;;;;;14.55;12.77;;;;;;;22.86;57.64;101180.09;5000598;28;20117;-73
2022/06/07 10:14:42;;;;;;;13.35;11.25;;;;;;;22.49;56.11;101180.84;5005661;28;20046;-73
2022/06/07 10:17:37;;;;;;;13.32;11.20;;;;;;;22.26;57.41;101178.00;4991476;28;20481;-73
2022/06/07 10:20:09;;;;;;;13.23;11.00;;;;;;;22.04;57.45;101174.03;5003990;28;20035;-73
2022/06/07 10:22:53;;;;;;;12.43;11.10;;;;;;;22.02;59.07;101167.81;5001120;28;20041;-74
2022/06/07 10:25:34;;;;;;;11.68;10.30;;;;;;;22.31;60.47;101172.78;5003926;28;20030;-74
2022/06/07 10:28:22;;;;;;;13.85;11.27;;;;;;;22.67;59.68;101171.19;4998458;28;20076;-73
2022/06/07 10:30:50;;;;;;;10.70;9.60;;;;;;;22.85;55.45;101162.59;5007756;28;20143;-73
2022/06/07 10:33:35;;;;;;;9.95;9.00;;;;;;;22.85;56.10;101164.50;5004555;28;20568;-73
2022/06/07 10:36:27;;;;;;;11.10;8.88;;;;;;;22.49;55.12;101170.59;5003075;28;20041;-74
2022/06/07 10:38:58;;;;;;;12.68;9.32;;;;;;;22.20;53.94;101167.63;5005077;28;20048;-72
2022/06/07 10:41:31;;;;;;;12.30;10.05;;;;;;;21.88;52.53;101170.28;5005239;28;20041;-73
2022/06/07 10:44:12;;;;;;;11.68;9.07;;;;;;;21.86;58.46;101174.25;4985735;28;20536;-73
2022/06/07 10:46:40;;;;;;;11.07;9.97;;;;;;;21.96;56.68;101165.75;5005458;28;20391;-73
2022/06/07 10:49:15;;;;;;;12.57;10.40;;;;;;;22.29;56.47;101167.41;5003997;28;20033;-73
2022/06/07 10:55:05;;;;;;;13.40;10.32;;;;;;;22.37;56.55;101170.13;4987836;28;20478;-73
2022/06/07 10:57:41;;;;;;;10.50;9.43;;;;;;;22.44;56.64;101161.97;4986814;28;20046;-73
2022/06/07 11:00:23;;;;;;;11.02;9.68;;;;;;;23.11;58.88;101151.16;5003470;28;20489;-72
2022/06/07 11:03:23;;;;;;;10.88;9.68;;;;;;;23.64;56.36;101156.78;4985850;28;20042;-72
2022/06/07 11:11:29;;;;;;;9.65;8.25;;;;;;;23.82;50.46;101146.16;5002696;28;20048;-74
2022/06/07 11:13:57;;;;;;;9.82;7.10;;;;;;;24.16;47.78;101145.59;5003567;28;20460;-73
2022/06/07 11:16:44;;;;;;;7.82;5.82;;;;;;;24.55;50.36;101143.56;5005664;28;20037;-72
2022/06/07 11:19:10;;;;;;;9.05;5.93;;;;;;;24.85;50.77;101147.94;5004953;28;20460;-71
2022/06/07 11:21:40;;;;;;;6.90;5.90;;;;;;;24.94;49.05;101151.47;5003605;28;20026;-69
2022/06/07 11:24:18;;;;;;;8.45;6.18;;;;;;;24.74;47.54;101153.19;5005835;28;20069;-73
2022/06/07 11:26:50;;;;;;;5.47;4.97;;;;;;;24.59;49.61;101151.31;5003213;28;20386;-72
2022/06/07 11:29:19;;;;;;;7.85;6.15;;;;;;;24.38;47.33;101156.81;4971762;28;20375;-72
2022/06/07 11:31:46;;;;;;;9.27;5.20;;;;;;;24.34;49.83;101149.88;5008289;28;20041;-73
2022/06/07 11:34:23;;;;;;;9.85;4.50;;;;;;;24.04;48.72;101147.13;5000974;28;20140;-73
2022/06/07 11:37:01;;;;;;;8.60;4.22;;;;;;;23.74;47.56;101150.97;4987832;28;20473;-73
2022/06/07 11:39:49;;;;;;;9.13;3.97;;;;;;;23.60;48.83;101149.88;4988273;28;20402;-73
2022/06/07 11:42:21;;;;;;;5.97;3.90;;;;;;;23.20;48.48;101154.72;4988634;28;20516;-73
2022/06/07 11:45:18;;;;;;;6.47;3.83;;;;;;;23.10;51.39;101165.22;4999119;28;20187;-72
2022/06/07 11:47:43;;;;;;;6.28;3.80;;;;;;;22.70;49.24;101150.53;4994127;28;20120;-73
2022/06/07 11:50:27;;;;;;;6.68;3.33;;;;;;;22.59;52.27;101151.81;4969462;28;20557;-73
2022/06/07 11:52:57;;;;;;;5.03;3.55;;;;;;;22.65;54.74;101150.22;4975559;28;20472;-72
2022/06/07 11:55:26;;;;;;;5.75;3.05;;;;;;;22.81;53.75;101147.38;4989776;28;20049;-73
2022/06/07 11:58:03;;;;;;;5.63;2.97;;;;;;;23.08;52.78;101143.22;4992903;28;20490;-72